createdAt,value
2022-08-25T00:02:03.118Z,100842.00
2022-08-25T00:04:30.221Z,100847.56
2022-08-25T00:07:02.224Z,100844.66
2022-08-25T00:09:30.681Z,100845.91
2022-08-25T00:11:57.590Z,100851.53
2022-08-25T00:14:33.386Z,100849.69
2022-08-25T00:17:00.254Z,100850.81
2022-08-25T00:19:32.898Z,100851.97
2022-08-25T00:22:00.505Z,100849.44
2022-08-25T00:24:27.845Z,100855.06
2022-08-25T00:26:57.081Z,100853.97
2022-08-25T00:29:28.597Z,100858.69
2022-08-25T00:31:56.247Z,100844.00
2022-08-25T00:34:27.711Z,100855.38
2022-08-25T00:36:54.615Z,100852.06
2022-08-25T00:39:24.025Z,100852.66
2022-08-25T00:41:53.256Z,100857.50
2022-08-25T00:44:20.867Z,100852.22
2022-08-25T00:46:50.860Z,100858.50
2022-08-25T00:49:37.826Z,100845.06
2022-08-25T00:52:10.432Z,100850.13
2022-08-25T00:54:46.103Z,100842.53
2022-08-25T00:57:15.419Z,100848.78
2022-08-25T00:59:44.291Z,100854.44
2022-08-25T01:02:14.510Z,100850.28
2022-08-25T01:04:48.614Z,100855.84
2022-08-25T01:07:19.508Z,100849.69
2022-08-25T01:09:49.865Z,100858.72
2022-08-25T01:12:16.566Z,100851.72
2022-08-25T01:14:46.491Z,100845.31
2022-08-25T01:17:14.150Z,100849.81
2022-08-25T01:19:40.865Z,100841.66
2022-08-25T01:22:08.054Z,100844.13
2022-08-25T01:24:57.538Z,100835.72
2022-08-25T01:27:24.233Z,100840.97
2022-08-25T01:29:50.998Z,100838.38
2022-08-25T01:32:17.810Z,100835.53
2022-08-25T01:34:45.598Z,100828.78
2022-08-25T01:37:14.476Z,100836.66
2022-08-25T01:39:41.311Z,100833.84
2022-08-25T01:42:11.310Z,100833.84
2022-08-25T01:44:40.969Z,100841.72
2022-08-25T01:47:08.769Z,100842.56
2022-08-25T01:49:35.656Z,100844.00
2022-08-25T01:52:36.143Z,100837.59
2022-08-25T01:55:03.389Z,100846.09
2022-08-25T01:57:31.617Z,100847.59
2022-08-25T01:59:59.179Z,100838.38
2022-08-25T02:02:26.267Z,100843.19
2022-08-25T02:04:53.242Z,100843.75
2022-08-25T02:07:19.996Z,100847.13
2022-08-25T02:09:46.976Z,100844.69
2022-08-25T02:12:13.896Z,100842.16
2022-08-25T02:14:40.851Z,100844.41
2022-08-25T02:17:09.712Z,100837.09
2022-08-25T02:19:36.628Z,100840.75
2022-08-25T02:22:03.622Z,100842.69
2022-08-25T02:24:30.462Z,100844.44
2022-08-25T02:26:58.079Z,100846.66
2022-08-25T02:29:24.991Z,100845.53
2022-08-25T02:31:51.722Z,100851.16
2022-08-25T02:34:18.676Z,100849.44
2022-08-25T02:36:45.501Z,100845.50
2022-08-25T02:39:13.142Z,100850.81
2022-08-25T02:41:40.204Z,100838.75
2022-08-25T02:44:08.051Z,100845.53
2022-08-25T02:46:35.576Z,100850.59
2022-08-25T02:49:02.490Z,100853.66
2022-08-25T02:51:30.141Z,100840.16
2022-08-25T02:53:59.098Z,100847.19
2022-08-25T02:56:26.114Z,100837.91
2022-08-25T02:58:53.238Z,100853.38
2022-08-25T03:01:20.831Z,100848.28
2022-08-25T03:03:52.285Z,100837.59
2022-08-25T03:06:22.896Z,100841.53
2022-08-25T03:08:50.110Z,100833.56
2022-08-25T03:11:17.779Z,100841.72
2022-08-25T03:13:45.264Z,100844.84
2022-08-25T03:16:12.362Z,100845.31
2022-08-25T03:18:42.139Z,100836.31
2022-08-25T03:21:11.380Z,100835.44
2022-08-25T03:23:40.204Z,100832.41
2022-08-25T03:26:25.782Z,100821.78
2022-08-25T03:28:54.631Z,100819.25
2022-08-25T03:31:23.365Z,100806.06
2022-08-25T03:33:49.998Z,100814.47
2022-08-25T03:36:16.740Z,100810.78
2022-08-25T03:38:43.381Z,100813.31
2022-08-25T03:41:25.606Z,100817.22
2022-08-25T03:43:55.294Z,100809.97
2022-08-25T03:46:43.382Z,100809.31
2022-08-25T03:49:14.019Z,100809.88
2022-08-25T03:51:46.849Z,100807.03
2022-08-25T03:54:16.564Z,100810.69
2022-08-25T03:56:43.328Z,100811.84
2022-08-25T03:59:10.176Z,100805.44
2022-08-25T04:01:42.090Z,100811.56
2022-08-25T04:04:10.634Z,100804.81
2022-08-25T04:06:39.102Z,100809.63
2022-08-25T04:09:06.578Z,100809.31
2022-08-25T04:11:33.379Z,100805.88
2022-08-25T04:14:02.241Z,100800.75
2022-08-25T04:16:32.109Z,100802.78
2022-08-25T04:19:02.134Z,100797.38
2022-08-25T04:21:29.532Z,100797.16
2022-08-25T04:23:57.197Z,100796.06
2022-08-25T04:26:30.083Z,100785.69
2022-08-25T04:28:58.983Z,100795.28
2022-08-25T04:31:26.877Z,100789.38
2022-08-25T04:33:54.098Z,100787.16
2022-08-25T04:36:21.448Z,100773.41
2022-08-25T04:38:49.764Z,100779.03
2022-08-25T04:41:19.647Z,100776.22
2022-08-25T04:43:46.470Z,100779.06
2022-08-25T04:46:25.392Z,100778.75
2022-08-25T04:48:54.512Z,100775.66
2022-08-25T04:51:24.757Z,100775.41
2022-08-25T04:53:52.142Z,100781.59
2022-08-25T04:56:21.731Z,100783.56
2022-08-25T04:58:48.335Z,100784.13
2022-08-25T05:01:18.973Z,100785.00
2022-08-25T05:03:47.378Z,100790.59
2022-08-25T05:06:16.331Z,100799.34
2022-08-25T05:08:45.744Z,100793.16
2022-08-25T05:11:16.485Z,100788.09
2022-08-25T05:13:46.354Z,100783.06
2022-08-25T05:16:21.459Z,100788.13
2022-08-25T05:18:48.935Z,100789.81
2022-08-25T05:21:19.537Z,100779.69
2022-08-25T05:23:47.576Z,100785.03
2022-08-25T05:26:20.464Z,100787.53
2022-08-25T05:28:50.336Z,100785.88
2022-08-25T05:31:17.905Z,100791.47
2022-08-25T05:33:45.118Z,100787.56
2022-08-25T05:36:14.259Z,100785.31
2022-08-25T05:38:41.876Z,100784.78
2022-08-25T05:41:11.959Z,100775.78
2022-08-25T05:43:40.378Z,100792.94
2022-08-25T05:46:08.149Z,100785.94
2022-08-25T05:48:35.935Z,100778.91
2022-08-25T05:51:06.983Z,100780.03
2022-08-25T05:53:34.218Z,100775.81
2022-08-25T05:56:00.971Z,100781.69
2022-08-25T05:58:28.905Z,100776.94
2022-08-25T06:00:57.669Z,100776.09
2022-08-25T06:03:24.428Z,100767.66
2022-08-25T06:05:51.060Z,100767.94
2022-08-25T06:08:17.752Z,100777.50
2022-08-25T06:10:44.458Z,100774.97
2022-08-25T06:13:11.264Z,100775.81
2022-08-25T06:15:38.554Z,100778.63
2022-08-25T06:18:05.276Z,100775.81
2022-08-25T06:20:32.329Z,100767.66
2022-08-25T06:22:59.466Z,100774.97
2022-08-25T06:25:27.236Z,100772.97
2022-08-25T06:27:55.160Z,100774.66
2022-08-25T06:30:28.592Z,100777.22
2022-08-25T06:32:55.832Z,100786.47
2022-08-25T06:35:22.701Z,100776.94
2022-08-25T06:37:49.596Z,100777.50
2022-08-25T06:40:16.867Z,100776.38
2022-08-25T06:42:48.367Z,100770.72
2022-08-25T06:45:15.504Z,100772.44
2022-08-25T06:47:42.794Z,100780.84
2022-08-25T06:50:12.703Z,100788.72
2022-08-25T06:52:39.412Z,100790.66
2022-08-25T06:55:06.853Z,100786.41
2022-08-25T06:57:35.719Z,100784.16
2022-08-25T07:00:08.949Z,100788.66
2022-08-25T07:02:35.762Z,100792.00
2022-08-25T07:05:04.568Z,100792.28
2022-08-25T07:07:44.197Z,100799.88
2022-08-25T07:10:11.501Z,100796.81
2022-08-25T07:12:38.849Z,100795.09
2022-08-25T07:15:21.703Z,100794.78
2022-08-25T07:17:49.247Z,100789.72
2022-08-25T07:20:19.086Z,100789.72
2022-08-25T07:22:47.045Z,100794.22
2022-08-25T07:25:13.776Z,100796.13
2022-08-25T07:27:42.464Z,100792.72
2022-08-25T07:30:09.996Z,100792.06
2022-08-25T07:32:38.198Z,100783.81
2022-08-25T07:35:15.405Z,100783.03
2022-08-25T07:37:49.447Z,100789.19
2022-08-25T07:40:21.162Z,100794.44
2022-08-25T07:42:54.403Z,100780.91
2022-08-25T07:45:29.518Z,100788.44
2022-08-25T07:48:17.780Z,100789.19
2022-08-25T07:50:47.602Z,100783.22
2022-08-25T07:53:15.794Z,100789.09
2022-08-25T07:55:45.040Z,100788.88
2022-08-25T07:58:15.213Z,100790.84
2022-08-25T08:00:42.420Z,100784.28
2022-08-25T08:03:12.905Z,100780.28
2022-08-25T08:05:47.463Z,100782.16
2022-08-25T08:08:16.360Z,100773.59
2022-08-25T08:11:04.020Z,100771.88
2022-08-25T08:13:31.772Z,100769.94
2022-08-25T08:15:58.552Z,100766.44
2022-08-25T08:18:25.227Z,100769.53
2022-08-25T08:20:51.822Z,100775.16
2022-08-25T08:23:18.545Z,100779.66
2022-08-25T08:25:45.292Z,100779.63
2022-08-25T08:28:12.281Z,100774.41
2022-08-25T08:30:40.140Z,100777.94
2022-08-25T08:33:20.872Z,100777.13
2022-08-25T08:35:47.514Z,100775.75
2022-08-25T08:38:19.604Z,100774.88
2022-08-25T08:41:24.768Z,100772.47
2022-08-25T08:43:59.637Z,100764.00
2022-08-25T08:46:38.394Z,100753.50
2022-08-25T08:49:22.942Z,100749.97
2022-08-25T08:51:59.277Z,100744.56
2022-08-25T08:54:34.096Z,100738.41
2022-08-25T08:57:16.589Z,100735.72
2022-08-25T08:59:51.673Z,100733.66
2022-08-25T09:02:39.552Z,100734.50
2022-08-25T09:05:19.876Z,100734.59
2022-08-25T09:07:47.625Z,100731.59
2022-08-25T09:10:16.442Z,100724.31
2022-08-25T09:12:47.947Z,100730.19
2022-08-25T09:15:20.176Z,100733.97
2022-08-25T09:18:11.888Z,100730.34
2022-08-25T09:21:13.777Z,100735.31
2022-08-25T09:24:05.629Z,100728.09
2022-08-25T09:26:49.802Z,100728.31
2022-08-25T09:29:25.395Z,100729.34
2022-08-25T09:31:57.734Z,100719.09
2022-08-25T09:34:31.009Z,100715.22
2022-08-25T09:36:58.972Z,100708.53
2022-08-25T09:39:26.657Z,100714.56
2022-08-25T09:42:00.097Z,100707.31
2022-08-25T09:44:48.392Z,100708.28
2022-08-25T09:47:18.054Z,100698.31
2022-08-25T09:49:49.099Z,100692.16
2022-08-25T09:52:41.755Z,100691.19
2022-08-25T09:55:08.623Z,100690.75
2022-08-25T09:57:44.813Z,100679.78
2022-08-25T10:00:15.183Z,100681.56
2022-08-25T10:02:43.937Z,100685.41
2022-08-25T10:05:45.836Z,100665.16
2022-08-25T10:08:24.929Z,100665.94
2022-08-25T10:10:57.412Z,100671.44
2022-08-25T10:13:43.557Z,100661.16
2022-08-25T10:16:20.118Z,100656.75
2022-08-25T10:19:05.151Z,100661.13
2022-08-25T10:21:31.831Z,100663.41
2022-08-25T10:24:01.421Z,100654.47
2022-08-25T10:26:39.277Z,100654.16
2022-08-25T10:29:24.923Z,100650.47
2022-08-25T10:32:05.618Z,100653.72
2022-08-25T10:34:44.426Z,100643.72
2022-08-25T10:37:20.394Z,100651.56
2022-08-25T10:39:57.685Z,100644.41
2022-08-25T10:42:43.040Z,100632.75
2022-08-25T10:45:32.453Z,100639.84
2022-08-25T10:48:14.544Z,100634.06
2022-08-25T10:51:00.796Z,100640.75
2022-08-25T10:54:00.752Z,100633.53
2022-08-25T10:56:40.095Z,100629.38
2022-08-25T10:59:46.843Z,100624.28
2022-08-25T11:02:35.761Z,100624.47
2022-08-25T11:05:07.387Z,100621.91
2022-08-25T11:07:45.531Z,100613.75
2022-08-25T11:10:25.240Z,100612.28
2022-08-25T11:12:56.791Z,100601.53
2022-08-25T11:15:29.042Z,100601.16
2022-08-25T11:18:14.771Z,100607.63
2022-08-25T11:21:20.587Z,100609.38
2022-08-25T11:24:32.102Z,100597.72
2022-08-25T11:27:06.219Z,100604.38
2022-08-25T11:29:37.076Z,100602.88
2022-08-25T11:32:06.466Z,100599.88
2022-08-25T11:34:36.290Z,100599.63
2022-08-25T11:37:27.869Z,100609.31
2022-08-25T11:40:21.728Z,100613.03
2022-08-25T11:43:08.190Z,100612.03
2022-08-25T11:45:54.925Z,100598.03
2022-08-25T11:48:45.146Z,100595.66
2022-08-25T11:51:30.960Z,100594.53
2022-08-25T11:54:18.349Z,100599.06
2022-08-25T11:57:04.190Z,100603.06
2022-08-25T11:59:49.572Z,100602.38
2022-08-25T12:02:39.423Z,100593.06
2022-08-25T12:05:09.313Z,100591.75
2022-08-25T12:07:48.732Z,100590.25
2022-08-25T12:10:20.665Z,100595.75
2022-08-25T12:13:04.659Z,100586.25
2022-08-25T12:15:31.487Z,100578.53
2022-08-25T12:18:11.282Z,100581.59
2022-08-25T12:20:53.429Z,100575.59
2022-08-25T12:23:44.850Z,100571.66
2022-08-25T12:26:36.461Z,100571.00
2022-08-25T12:29:39.162Z,100556.66
2022-08-25T12:32:49.017Z,100568.63
2022-08-25T12:35:40.955Z,100563.97
2022-08-25T12:38:19.286Z,100553.25
2022-08-25T12:40:46.179Z,100551.06
2022-08-25T12:43:26.695Z,100548.88
2022-08-25T12:46:15.020Z,100539.88
2022-08-25T12:48:58.843Z,100535.25
2022-08-25T12:51:28.661Z,100538.38
2022-08-25T12:54:22.635Z,100536.69
2022-08-25T12:57:01.700Z,100536.53
2022-08-25T12:59:39.395Z,100535.53
2022-08-25T13:02:30.833Z,100522.38
2022-08-25T13:05:51.960Z,100532.06
2022-08-25T13:08:48.105Z,100529.59
2022-08-25T13:11:23.695Z,100527.06
2022-08-25T13:14:12.192Z,100523.06
2022-08-25T13:16:39.897Z,100522.41
2022-08-25T13:19:07.414Z,100519.72
2022-08-25T13:21:42.844Z,100521.22
2022-08-25T13:24:18.656Z,100514.88
2022-08-25T13:26:49.509Z,100505.22
2022-08-25T13:29:21.297Z,100502.84
2022-08-25T13:32:01.226Z,100499.50
2022-08-25T13:34:37.142Z,100504.53
2022-08-25T13:37:27.706Z,100505.00
2022-08-25T13:40:25.876Z,100489.47
2022-08-25T13:42:58.055Z,100497.16
2022-08-25T13:45:28.680Z,100491.31
2022-08-25T13:47:57.141Z,100484.13
2022-08-25T13:50:27.051Z,100481.78
2022-08-25T13:53:00.820Z,100480.94
2022-08-25T13:55:38.203Z,100487.78
2022-08-25T13:58:38.616Z,100489.28
2022-08-25T14:01:47.990Z,100486.97
2022-08-25T14:04:24.732Z,100480.25
2022-08-25T14:07:12.929Z,100473.28
2022-08-25T14:09:47.800Z,100473.94
2022-08-25T14:15:04.593Z,100471.75
2022-08-25T14:17:40.206Z,100470.25
2022-08-25T14:20:22.367Z,100467.44
2022-08-25T14:22:54.360Z,100459.41
2022-08-25T14:25:21.835Z,100462.25
2022-08-25T14:28:07.296Z,100463.09
2022-08-25T14:30:39.687Z,100460.75
2022-08-25T14:33:11.448Z,100453.91
2022-08-25T14:35:38.334Z,100450.53
2022-08-25T14:38:10.762Z,100457.03
2022-08-25T14:40:37.807Z,100457.84
2022-08-25T14:43:04.458Z,100452.47
2022-08-25T14:45:32.225Z,100448.47
2022-08-25T14:48:05.373Z,100447.66
2022-08-25T14:50:38.083Z,100452.50
2022-08-25T14:53:09.187Z,100443.81
2022-08-25T14:55:36.048Z,100437.78
2022-08-25T14:58:02.794Z,100436.41
2022-08-25T15:00:29.596Z,100439.78
2022-08-25T15:02:56.950Z,100440.00
2022-08-25T15:05:28.213Z,100436.63
2022-08-25T15:08:14.950Z,100437.25
2022-08-25T15:10:43.344Z,100433.06
2022-08-25T15:13:10.827Z,100429.06
2022-08-25T15:15:40.009Z,100424.91
2022-08-25T15:18:20.542Z,100425.75
2022-08-25T15:20:47.499Z,100421.38
2022-08-25T15:23:20.405Z,100422.22
2022-08-25T15:25:53.789Z,100415.84
2022-08-25T15:28:22.362Z,100416.13
2022-08-25T15:30:50.330Z,100413.59
2022-08-25T15:33:17.582Z,100416.59
2022-08-25T15:35:45.115Z,100407.59
2022-08-25T15:38:12.582Z,100404.78
2022-08-25T15:40:39.721Z,100393.47
2022-08-25T15:43:07.032Z,100399.47
2022-08-25T15:45:35.873Z,100393.28
2022-08-25T15:48:04.405Z,100394.25
2022-08-25T15:50:33.888Z,100390.50
2022-08-25T15:53:00.607Z,100381.31
2022-08-25T15:55:27.352Z,100380.78
2022-08-25T15:57:54.062Z,100386.91
2022-08-25T16:00:21.447Z,100393.41
2022-08-25T16:02:48.248Z,100393.88
2022-08-25T16:05:16.181Z,100392.13
2022-08-25T16:07:45.886Z,100386.03
2022-08-25T16:10:13.581Z,100395.69
2022-08-25T16:12:40.343Z,100387.66
2022-08-25T16:15:10.150Z,100386.81
2022-08-25T16:17:40.643Z,100389.81
2022-08-25T16:20:12.580Z,100380.44
2022-08-25T16:22:41.325Z,100391.66
2022-08-25T16:25:08.777Z,100387.78
2022-08-25T16:27:38.634Z,100375.59
2022-08-25T16:30:14.983Z,100379.00
2022-08-25T16:32:44.871Z,100382.75
2022-08-25T16:35:13.185Z,100376.72
2022-08-25T16:37:40.441Z,100378.97
2022-08-25T16:40:13.201Z,100372.13
2022-08-25T16:42:41.718Z,100378.72
2022-08-25T16:45:08.825Z,100368.41
2022-08-25T16:47:38.022Z,100374.09
2022-08-25T16:50:08.883Z,100373.22
2022-08-25T16:52:58.320Z,100369.41
2022-08-25T16:55:27.265Z,100372.44
2022-08-25T16:57:55.398Z,100368.63
2022-08-25T17:00:28.279Z,100370.44
2022-08-25T17:03:05.057Z,100363.75
2022-08-25T17:05:33.394Z,100373.00
2022-08-25T17:08:19.667Z,100368.78
2022-08-25T17:10:46.465Z,100370.09
2022-08-25T17:13:13.572Z,100367.59
2022-08-25T17:15:42.674Z,100366.44
2022-08-25T17:18:11.209Z,100374.22
2022-08-25T17:20:41.953Z,100366.94
2022-08-25T17:23:12.691Z,100379.59
2022-08-25T17:25:43.236Z,100378.25
2022-08-25T17:28:11.935Z,100377.25
2022-08-25T17:30:39.487Z,100383.09
2022-08-25T17:33:06.839Z,100380.63
2022-08-25T17:35:42.767Z,100383.78
2022-08-25T17:38:10.929Z,100375.13
2022-08-25T17:40:38.412Z,100378.63
2022-08-25T17:43:06.022Z,100378.75
2022-08-25T17:45:36.063Z,100369.44
2022-08-25T17:48:03.137Z,100376.09
2022-08-25T17:50:30.310Z,100375.25
2022-08-25T17:52:57.086Z,100376.28
2022-08-25T17:55:24.539Z,100380.13
2022-08-25T17:57:51.211Z,100380.88
2022-08-25T18:00:20.847Z,100385.91
2022-08-25T18:02:47.965Z,100381.03
2022-08-25T18:05:15.787Z,100385.22
2022-08-25T18:07:42.479Z,100382.84
2022-08-25T18:10:11.570Z,100386.66
2022-08-25T18:12:38.901Z,100385.31
2022-08-25T18:15:06.759Z,100398.59
2022-08-25T18:17:35.685Z,100386.22
2022-08-25T18:20:06.459Z,100392.06
2022-08-25T18:22:34.707Z,100393.84
2022-08-25T18:25:06.164Z,100385.50
2022-08-25T18:27:34.568Z,100391.63
2022-08-25T18:30:01.819Z,100388.25
2022-08-25T18:32:29.285Z,100381.56
2022-08-25T18:34:56.385Z,100392.50
2022-08-25T18:37:42.310Z,100391.19
2022-08-25T18:40:25.638Z,100387.63
2022-08-25T18:42:57.514Z,100387.47
2022-08-25T18:45:28.475Z,100393.72
2022-08-25T18:47:56.285Z,100395.00
2022-08-25T18:50:32.169Z,100397.16
2022-08-25T18:52:59.667Z,100392.78
2022-08-25T18:55:27.100Z,100398.44
2022-08-25T18:57:55.335Z,100388.41
2022-08-25T19:00:25.472Z,100392.22
2022-08-25T19:02:55.524Z,100394.69
2022-08-25T19:05:28.301Z,100394.50
2022-08-25T19:07:55.335Z,100388.66
2022-08-25T19:10:24.125Z,100397.94
2022-08-25T19:12:52.081Z,100401.69
2022-08-25T19:15:18.787Z,100399.19
2022-08-25T19:17:53.110Z,100402.38
2022-08-25T19:20:21.758Z,100404.47
2022-08-25T19:22:49.597Z,100400.88
2022-08-25T19:25:18.709Z,100395.03
2022-08-25T19:27:47.138Z,100404.75
2022-08-25T19:30:15.980Z,100406.81
2022-08-25T19:32:44.731Z,100405.69
2022-08-25T19:35:46.237Z,100403.69
2022-08-25T19:38:34.062Z,100401.34
2022-08-25T19:41:10.658Z,100399.34
2022-08-25T19:43:55.600Z,100395.50
2022-08-25T19:46:35.776Z,100397.50
2022-08-25T19:49:31.763Z,100401.59
2022-08-25T19:52:02.764Z,100401.72
2022-08-25T19:54:44.426Z,100405.16
2022-08-25T19:57:13.120Z,100397.75
2022-08-25T19:59:55.305Z,100402.97
2022-08-25T20:02:25.345Z,100399.09
2022-08-25T20:04:59.285Z,100409.34
2022-08-25T20:07:29.101Z,100403.72
2022-08-25T20:09:57.059Z,100410.50
2022-08-25T20:12:26.994Z,100403.50
2022-08-25T20:14:54.918Z,100407.25
2022-08-25T20:17:24.576Z,100402.84
2022-08-25T20:19:55.855Z,100407.03
2022-08-25T20:22:26.441Z,100412.59
2022-08-25T20:24:57.857Z,100404.75
2022-08-25T20:27:32.213Z,100403.78
2022-08-25T20:29:59.516Z,100401.72
2022-08-25T20:32:31.295Z,100402.00
2022-08-25T20:34:57.985Z,100396.34
2022-08-25T20:37:25.658Z,100387.16
2022-08-25T20:39:52.735Z,100387.78
2022-08-25T20:42:19.709Z,100391.31
2022-08-25T20:44:47.036Z,100391.94
2022-08-25T20:47:14.952Z,100399.06
2022-08-25T20:49:44.862Z,100388.16
2022-08-25T20:52:11.970Z,100387.81
2022-08-25T20:54:40.197Z,100396.91
2022-08-25T20:57:07.974Z,100397.03
2022-08-25T20:59:34.954Z,100392.19
2022-08-25T21:02:02.487Z,100396.00
2022-08-25T21:04:30.708Z,100395.63
2022-08-25T21:07:00.264Z,100389.34
2022-08-25T21:09:28.451Z,100393.66
2022-08-25T21:11:57.169Z,100399.09
2022-08-25T21:14:25.127Z,100403.09
2022-08-25T21:16:54.026Z,100401.16
2022-08-25T21:19:26.552Z,100400.75
2022-08-25T21:21:54.516Z,100406.34
2022-08-25T21:24:28.170Z,100401.16
2022-08-25T21:26:57.098Z,100399.22
2022-08-25T21:29:28.380Z,100394.75
2022-08-25T21:31:56.484Z,100412.19
2022-08-25T21:34:23.178Z,100410.50
2022-08-25T21:36:49.834Z,100402.16
2022-08-25T21:39:17.254Z,100402.78
2022-08-25T21:41:45.117Z,100397.50
2022-08-25T21:44:13.206Z,100408.53
2022-08-25T21:46:40.910Z,100395.22
2022-08-25T21:49:08.393Z,100407.31
2022-08-25T21:51:40.818Z,100405.50
2022-08-25T21:54:11.728Z,100416.94
2022-08-25T21:56:48.621Z,100397.47
2022-08-25T21:59:21.200Z,100410.84
2022-08-25T22:01:48.355Z,100400.56
2022-08-25T22:04:15.443Z,100403.88
2022-08-25T22:06:42.322Z,100403.44
2022-08-25T22:09:12.701Z,100400.47
2022-08-25T22:11:42.305Z,100405.28
2022-08-25T22:14:10.021Z,100398.88
2022-08-25T22:16:38.126Z,100396.47
2022-08-25T22:19:06.859Z,100395.28
2022-08-25T22:21:34.911Z,100404.56
2022-08-25T22:24:01.839Z,100394.16
2022-08-25T22:26:31.726Z,100403.56
2022-08-25T22:28:59.654Z,100399.41
2022-08-25T22:31:27.490Z,100404.47
2022-08-25T22:33:57.637Z,100401.13
2022-08-25T22:36:27.869Z,100400.41
2022-08-25T22:38:55.799Z,100402.31
2022-08-25T22:41:23.652Z,100401.47
2022-08-25T22:43:53.120Z,100399.31
2022-08-25T22:46:22.040Z,100404.00
2022-08-25T22:48:50.380Z,100411.50
2022-08-25T22:51:21.888Z,100407.59
2022-08-25T22:53:49.472Z,100413.38
2022-08-25T22:56:21.521Z,100411.06
2022-08-25T22:58:51.516Z,100412.31
2022-08-25T23:01:20.208Z,100409.13
2022-08-25T23:03:47.664Z,100410.56
2022-08-25T23:06:20.799Z,100410.44
2022-08-25T23:08:51.467Z,100410.81
2022-08-25T23:11:21.491Z,100409.47
2022-08-25T23:13:49.171Z,100404.53
2022-08-25T23:16:16.812Z,100408.41
2022-08-25T23:18:44.993Z,100406.75
2022-08-25T23:21:35.189Z,100405.69
2022-08-25T23:24:08.806Z,100409.72
2022-08-25T23:26:41.994Z,100403.06
2022-08-25T23:29:17.997Z,100411.94
2022-08-25T23:31:47.719Z,100412.94
2022-08-25T23:34:16.106Z,100405.38
2022-08-25T23:36:43.950Z,100409.28
2022-08-25T23:39:11.135Z,100410.41
2022-08-25T23:41:38.630Z,100408.34
2022-08-25T23:44:06.150Z,100405.44
2022-08-25T23:46:35.383Z,100413.19
2022-08-25T23:49:04.771Z,100410.38
2022-08-25T23:51:34.210Z,100407.28
2022-08-25T23:54:05.846Z,100397.09
2022-08-25T23:56:34.292Z,100400.69
2022-08-25T23:59:02.940Z,100400.31
